sensor_id;sensor_type;location;lat;lon;timestamp;pressure;altitude;pressure_sealevel;temperature;humidity
44127;BME280;29786;50.798;7.302;2023-04-29T00:01:28;98910;;;11.24;100
44127;BME280;29786;50.798;7.302;2023-04-29T00:07:39;98910;;;11.22;100
44127;BME280;29786;50.798;7.302;2023-04-29T00:12:35;98910;;;11.21;100
44127;BME280;29786;50.798;7.302;2023-04-29T00:17:32;98890;;;11.11;100
44127;BME280;29786;50.798;7.302;2023-04-29T00:22:28;98910;;;11.19;100
44127;BME280;29786;50.798;7.302;2023-04-29T00:27:25;98920;;;11.18;100
44127;BME280;29786;50.798;7.302;2023-04-29T00:33:36;98930;;;11.17;100
44127;BME280;29786;50.798;7.302;2023-04-29T00:38:32;98910;;;11.1;100
44127;BME280;29786;50.798;7.302;2023-04-29T00:43:29;98940;;;11.23;100
44127;BME280;29786;50.798;7.302;2023-04-29T00:49:39;98940;;;11.27;100
44127;BME280;29786;50.798;7.302;2023-04-29T00:54:36;98950;;;11.15;100
44127;BME280;29786;50.798;7.302;2023-04-29T01:04:29;98960;;;11.04;100
44127;BME280;29786;50.798;7.302;2023-04-29T01:09:28;98950;;;10.97;100
44127;BME280;29786;50.798;7.302;2023-04-29T01:15:58;98950;;;10.91;100
44127;BME280;29786;50.798;7.302;2023-04-29T01:20:33;98960;;;10.97;100
44127;BME280;29786;50.798;7.302;2023-04-29T01:25:29;98960;;;10.89;100
44127;BME280;29786;50.798;7.302;2023-04-29T01:36:42;98960;;;10.8;100
44127;BME280;29786;50.798;7.302;2023-04-29T01:41:34;98960;;;10.68;100
44127;BME280;29786;50.798;7.302;2023-04-29T01:46:29;98970;;;10.64;100
44127;BME280;29786;50.798;7.302;2023-04-29T01:51:26;98980;;;10.62;100
44127;BME280;29786;50.798;7.302;2023-04-29T01:57:37;98980;;;10.56;100
44127;BME280;29786;50.798;7.302;2023-04-29T02:02:33;98970;;;10.64;100
44127;BME280;29786;50.798;7.302;2023-04-29T02:07:30;98980;;;10.44;100
44127;BME280;29786;50.798;7.302;2023-04-29T02:12:26;98980;;;10.44;100
44127;BME280;29786;50.798;7.302;2023-04-29T02:18:37;98990;;;10.32;100
44127;BME280;29786;50.798;7.302;2023-04-29T02:23:34;98980;;;10.36;100
44127;BME280;29786;50.798;7.302;2023-04-29T02:28:30;98990;;;10.32;100
44127;BME280;29786;50.798;7.302;2023-04-29T02:33:26;98990;;;10.25;100
44127;BME280;29786;50.798;7.302;2023-04-29T02:39:37;99000;;;10.24;100
44127;BME280;29786;50.798;7.302;2023-04-29T02:44:34;99000;;;10.27;100
44127;BME280;29786;50.798;7.302;2023-04-29T02:49:30;99000;;;10.18;100
44127;BME280;29786;50.798;7.302;2023-04-29T02:54:27;99000;;;10.12;100
44127;BME280;29786;50.798;7.302;2023-04-29T03:00:39;99010;;;10.08;100
44127;BME280;29786;50.798;7.302;2023-04-29T03:05:34;99010;;;10.01;100
44127;BME280;29786;50.798;7.302;2023-04-29T03:10:30;99020;;;9.97;100
44127;BME280;29786;50.798;7.302;2023-04-29T03:15:27;99010;;;9.93;100
44127;BME280;29786;50.798;7.302;2023-04-29T03:21:38;99020;;;9.97;100
44127;BME280;29786;50.798;7.302;2023-04-29T03:26:34;99020;;;9.89;100
44127;BME280;29786;50.798;7.302;2023-04-29T03:31:31;99020;;;9.85;100
44127;BME280;29786;50.798;7.302;2023-04-29T03:36:27;99020;;;9.76;100
44127;BME280;29786;50.798;7.302;2023-04-29T03:42:38;99020;;;9.72;100
44127;BME280;29786;50.798;7.302;2023-04-29T03:47:35;99020;;;9.64;100
44127;BME280;29786;50.798;7.302;2023-04-29T03:52:31;99030;;;9.57;100
44127;BME280;29786;50.798;7.302;2023-04-29T03:57:28;99030;;;9.55;100
44127;BME280;29786;50.798;7.302;2023-04-29T04:03:38;99030;;;9.54;100
44127;BME280;29786;50.798;7.302;2023-04-29T04:08:35;99040;;;9.56;100
44127;BME280;29786;50.798;7.302;2023-04-29T04:13:31;99040;;;9.5;100
44127;BME280;29786;50.798;7.302;2023-04-29T04:18:28;99050;;;9.43;100
44127;BME280;29786;50.798;7.302;2023-04-29T04:24:39;99050;;;9.29;100
44127;BME280;29786;50.798;7.302;2023-04-29T04:29:35;99050;;;9.22;100
44127;BME280;29786;50.798;7.302;2023-04-29T04:34:32;99040;;;8.99;100
44127;BME280;29786;50.798;7.302;2023-04-29T04:39:28;99070;;;9.1;100
44127;BME280;29786;50.798;7.302;2023-04-29T04:45:39;99080;;;8.93;100
44127;BME280;29786;50.798;7.302;2023-04-29T04:50:35;99090;;;8.75;100
44127;BME280;29786;50.798;7.302;2023-04-29T04:55:32;99070;;;8.57;100
44127;BME280;29786;50.798;7.302;2023-04-29T05:00:28;99100;;;8.72;100
44127;BME280;29786;50.798;7.302;2023-04-29T05:06:39;99110;;;8.6;100
44127;BME280;29786;50.798;7.302;2023-04-29T05:11:36;99120;;;8.63;100
44127;BME280;29786;50.798;7.302;2023-04-29T05:16:32;99100;;;8.47;100
44127;BME280;29786;50.798;7.302;2023-04-29T05:21:29;99130;;;8.63;100
44127;BME280;29786;50.798;7.302;2023-04-29T05:26:25;99140;;;8.62;100
44127;BME280;29786;50.798;7.302;2023-04-29T05:32:36;99150;;;8.68;100
44127;BME280;29786;50.798;7.302;2023-04-29T05:37:32;99150;;;8.7;100
44127;BME280;29786;50.798;7.302;2023-04-29T05:42:29;99160;;;8.66;100
44127;BME280;29786;50.798;7.302;2023-04-29T05:47:25;99150;;;8.6;100
44127;BME280;29786;50.798;7.302;2023-04-29T05:53:36;99170;;;8.6;100
44127;BME280;29786;50.798;7.302;2023-04-29T05:58:33;99180;;;8.68;100
44127;BME280;29786;50.798;7.302;2023-04-29T06:03:29;99190;;;8.72;100
44127;BME280;29786;50.798;7.302;2023-04-29T06:14:36;99200;;;8.82;100
44127;BME280;29786;50.798;7.302;2023-04-29T06:19:33;99210;;;8.81;100
44127;BME280;29786;50.798;7.302;2023-04-29T06:24:29;99220;;;8.75;100
44127;BME280;29786;50.798;7.302;2023-04-29T06:29:26;99220;;;8.92;100
44127;BME280;29786;50.798;7.302;2023-04-29T06:35:38;99230;;;8.85;100
44127;BME280;29786;50.798;7.302;2023-04-29T06:40:33;99240;;;8.79;100
44127;BME280;29786;50.798;7.302;2023-04-29T06:45:30;99250;;;8.77;100
44127;BME280;29786;50.798;7.302;2023-04-29T06:50:26;99250;;;8.82;100
44127;BME280;29786;50.798;7.302;2023-04-29T06:56:37;99260;;;8.82;100
44127;BME280;29786;50.798;7.302;2023-04-29T07:00:27;99260;;;8.84;100
44127;BME280;29786;50.798;7.302;2023-04-29T07:06:38;99280;;;8.81;100
44127;BME280;29786;50.798;7.302;2023-04-29T07:11:35;99280;;;8.88;100
44127;BME280;29786;50.798;7.302;2023-04-29T07:16:31;99290;;;8.85;100
44127;BME280;29786;50.798;7.302;2023-04-29T07:21:28;99290;;;8.8;100
44127;BME280;29786;50.798;7.302;2023-04-29T07:27:39;99310;;;8.87;100
44127;BME280;29786;50.798;7.302;2023-04-29T07:32:35;99310;;;8.95;100
44127;BME280;29786;50.798;7.302;2023-04-29T07:37:31;99320;;;9.04;100
44127;BME280;29786;50.798;7.302;2023-04-29T07:42:28;99320;;;9.18;100
44127;BME280;29786;50.798;7.302;2023-04-29T07:48:39;99320;;;9.32;100
44127;BME280;29786;50.798;7.302;2023-04-29T07:53:35;99320;;;9.41;100
44127;BME280;29786;50.798;7.302;2023-04-29T07:58:32;99300;;;9.31;100
44127;BME280;29786;50.798;7.302;2023-04-29T08:03:28;99330;;;9.18;100
44127;BME280;29786;50.798;7.302;2023-04-29T08:09:39;99340;;;9.22;100
44127;BME280;29786;50.798;7.302;2023-04-29T08:14:35;99350;;;9.2;100
44127;BME280;29786;50.798;7.302;2023-04-29T08:19:32;99330;;;9.1;100
44127;BME280;29786;50.798;7.302;2023-04-29T08:24:28;99350;;;9.51;100
44127;BME280;29786;50.798;7.302;2023-04-29T08:30:39;99360;;;9.96;100
44127;BME280;29786;50.798;7.302;2023-04-29T08:35:36;99360;;;9.85;100
44127;BME280;29786;50.798;7.302;2023-04-29T08:40:34;99370;;;9.89;100
44127;BME280;29786;50.798;7.302;2023-04-29T08:45:29;99370;;;10.03;100
44127;BME280;29786;50.798;7.302;2023-04-29T08:50:25;99380;;;10.29;100
44127;BME280;29786;50.798;7.302;2023-04-29T08:56:36;99380;;;10.35;100
44127;BME280;29786;50.798;7.302;2023-04-29T09:01:33;99390;;;10.38;100
44127;BME280;29786;50.798;7.302;2023-04-29T09:06:29;99380;;;10.43;100
44127;BME280;29786;50.798;7.302;2023-04-29T09:11:26;99380;;;10.46;100
44127;BME280;29786;50.798;7.302;2023-04-29T09:17:37;99380;;;10.69;100
44127;BME280;29786;50.798;7.302;2023-04-29T09:22:46;99390;;;10.48;100
44127;BME280;29786;50.798;7.302;2023-04-29T09:27:29;99400;;;10.94;100
44127;BME280;29786;50.798;7.302;2023-04-29T09:32:26;99400;;;11.54;100
44127;BME280;29786;50.798;7.302;2023-04-29T09:38:36;99410;;;12.06;100
44127;BME280;29786;50.798;7.302;2023-04-29T09:43:33;99410;;;12.32;100
44127;BME280;29786;50.798;7.302;2023-04-29T09:48:30;99410;;;12.63;100
44127;BME280;29786;50.798;7.302;2023-04-29T09:53:27;99420;;;11.96;100
44127;BME280;29786;50.798;7.302;2023-04-29T09:59:39;99420;;;11.54;100
44127;BME280;29786;50.798;7.302;2023-04-29T10:04:33;99440;;;10.62;100
44127;BME280;29786;50.798;7.302;2023-04-29T10:09:30;99450;;;10.27;100
44127;BME280;29786;50.798;7.302;2023-04-29T10:14:26;99460;;;10.05;100
44127;BME280;29786;50.798;7.302;2023-04-29T10:20:37;99450;;;10.08;100
44127;BME280;29786;50.798;7.302;2023-04-29T10:25:34;99450;;;10.33;100
44127;BME280;29786;50.798;7.302;2023-04-29T10:30:30;99460;;;10.35;100
44127;BME280;29786;50.798;7.302;2023-04-29T10:41:43;99470;;;10.33;100
44127;BME280;29786;50.798;7.302;2023-04-29T10:46:34;99470;;;10.42;100
44127;BME280;29786;50.798;7.302;2023-04-29T10:51:32;99470;;;10.64;100
44127;BME280;29786;50.798;7.302;2023-04-29T10:56:35;99480;;;10.37;100
44127;BME280;29786;50.798;7.302;2023-04-29T11:02:38;99480;;;10.43;100
44127;BME280;29786;50.798;7.302;2023-04-29T11:07:34;99480;;;10.31;100
44127;BME280;29786;50.798;7.302;2023-04-29T11:12:31;99490;;;10.34;100
44127;BME280;29786;50.798;7.302;2023-04-29T11:17:33;99490;;;10.47;100
44127;BME280;29786;50.798;7.302;2023-04-29T11:23:38;99490;;;11;100
44127;BME280;29786;50.798;7.302;2023-04-29T11:28:34;99480;;;10.95;100
44127;BME280;29786;50.798;7.302;2023-04-29T11:33:31;99490;;;10.59;100
44127;BME280;29786;50.798;7.302;2023-04-29T11:38:28;99500;;;10.5;100
44127;BME280;29786;50.798;7.302;2023-04-29T11:44:38;99500;;;10.38;100
44127;BME280;29786;50.798;7.302;2023-04-29T11:49:35;99510;;;10.32;100
44127;BME280;29786;50.798;7.302;2023-04-29T11:54:31;99510;;;10.25;100
44127;BME280;29786;50.798;7.302;2023-04-29T11:59:28;99510;;;10.34;100
44127;BME280;29786;50.798;7.302;2023-04-29T12:05:38;99520;;;10.39;100
44127;BME280;29786;50.798;7.302;2023-04-29T12:10:35;99520;;;10.26;100
44127;BME280;29786;50.798;7.302;2023-04-29T12:15:31;99520;;;10.09;100
44127;BME280;29786;50.798;7.302;2023-04-29T12:20:28;99520;;;10.18;100
44127;BME280;29786;50.798;7.302;2023-04-29T12:25:25;99520;;;10.37;100
44127;BME280;29786;50.798;7.302;2023-04-29T12:31:35;99530;;;10.54;100
44127;BME280;29786;50.798;7.302;2023-04-29T12:36:32;99510;;;10.33;100
44127;BME280;29786;50.798;7.302;2023-04-29T12:41:44;99520;;;10.44;100
44127;BME280;29786;50.798;7.302;2023-04-29T12:47:39;99530;;;10.39;100
44127;BME280;29786;50.798;7.302;2023-04-29T12:52:35;99530;;;10.38;100
44127;BME280;29786;50.798;7.302;2023-04-29T12:57:32;99510;;;10.49;100
44127;BME280;29786;50.798;7.302;2023-04-29T13:02:29;99540;;;10.79;100
44127;BME280;29786;50.798;7.302;2023-04-29T13:07:25;99540;;;10.78;100
44127;BME280;29786;50.798;7.302;2023-04-29T13:13:36;99540;;;10.71;100
44127;BME280;29786;50.798;7.302;2023-04-29T13:18:32;99520;;;10.9;100
44127;BME280;29786;50.798;7.302;2023-04-29T13:23:29;99540;;;11.18;100
44127;BME280;29786;50.798;7.302;2023-04-29T13:28:25;99550;;;11.38;100
44127;BME280;29786;50.798;7.302;2023-04-29T13:34:36;99550;;;11.87;100
44127;BME280;29786;50.798;7.302;2023-04-29T13:44:29;99540;;;12.8;100
44127;BME280;29786;50.798;7.302;2023-04-29T13:49:26;99540;;;13.18;100
44127;BME280;29786;50.798;7.302;2023-04-29T13:55:36;99550;;;12.59;100
44127;BME280;29786;50.798;7.302;2023-04-29T14:00:33;99550;;;12.73;100
44127;BME280;29786;50.798;7.302;2023-04-29T14:05:29;99550;;;12.42;100
44127;BME280;29786;50.798;7.302;2023-04-29T14:10:26;99550;;;13.11;100
44127;BME280;29786;50.798;7.302;2023-04-29T14:16:36;99550;;;12.98;100
44127;BME280;29786;50.798;7.302;2023-04-29T14:21:33;99550;;;13.04;100
44127;BME280;29786;50.798;7.302;2023-04-29T14:26:30;99550;;;12.96;100
44127;BME280;29786;50.798;7.302;2023-04-29T14:31:27;99550;;;12.71;100
44127;BME280;29786;50.798;7.302;2023-04-29T14:37:37;99560;;;12.82;100
44127;BME280;29786;50.798;7.302;2023-04-29T14:40:05;99550;;;12.93;100
44127;BME280;29786;50.798;7.302;2023-04-29T14:42:33;99550;;;13;100
44127;BME280;29786;50.798;7.302;2023-04-29T14:47:30;99560;;;13.22;100
44127;BME280;29786;50.798;7.302;2023-04-29T14:52:26;99570;;;13.14;100
44127;BME280;29786;50.798;7.302;2023-04-29T14:58:37;99580;;;12.89;100
44127;BME280;29786;50.798;7.302;2023-04-29T15:03:34;99570;;;12.46;100
44127;BME280;29786;50.798;7.302;2023-04-29T15:08:30;99580;;;12.03;100
44127;BME280;29786;50.798;7.302;2023-04-29T15:13:27;99590;;;11.91;100
44127;BME280;29786;50.798;7.302;2023-04-29T15:18:31;99590;;;11.81;100
44127;BME280;29786;50.798;7.302;2023-04-29T15:23:28;99600;;;11.67;100
44127;BME280;29786;50.798;7.302;2023-04-29T15:29:39;99600;;;11.63;100
44127;BME280;29786;50.798;7.302;2023-04-29T15:34:35;99600;;;11.63;100
44127;BME280;29786;50.798;7.302;2023-04-29T15:39:32;99590;;;11.55;100
44127;BME280;29786;50.798;7.302;2023-04-29T15:44:28;99600;;;11.71;100
44127;BME280;29786;50.798;7.302;2023-04-29T15:49:25;99600;;;11.77;100
44127;BME280;29786;50.798;7.302;2023-04-29T15:55:35;99610;;;11.89;100
44127;BME280;29786;50.798;7.302;2023-04-29T16:00:32;99590;;;11.88;100
44127;BME280;29786;50.798;7.302;2023-04-29T16:05:28;99610;;;12.12;100
44127;BME280;29786;50.798;7.302;2023-04-29T16:10:25;99610;;;12.29;100
44127;BME280;29786;50.798;7.302;2023-04-29T16:16:36;99620;;;12.37;100
44127;BME280;29786;50.798;7.302;2023-04-29T16:21:32;99600;;;12.15;100
44127;BME280;29786;50.798;7.302;2023-04-29T16:26:29;99610;;;12.49;100
44127;BME280;29786;50.798;7.302;2023-04-29T16:31:25;99620;;;12.67;100
44127;BME280;29786;50.798;7.302;2023-04-29T16:37:36;99610;;;12.75;100
44127;BME280;29786;50.798;7.302;2023-04-29T16:42:32;99610;;;12.81;100
44127;BME280;29786;50.798;7.302;2023-04-29T16:47:29;99610;;;13.23;100
44127;BME280;29786;50.798;7.302;2023-04-29T16:52:25;99610;;;13.27;100
44127;BME280;29786;50.798;7.302;2023-04-29T16:58:36;99610;;;13.19;100
44127;BME280;29786;50.798;7.302;2023-04-29T17:03:33;99620;;;13.27;100
44127;BME280;29786;50.798;7.302;2023-04-29T17:08:29;99620;;;12.94;100
44127;BME280;29786;50.798;7.302;2023-04-29T17:19:36;99620;;;12.53;100
44127;BME280;29786;50.798;7.302;2023-04-29T17:24:33;99620;;;12.43;100
44127;BME280;29786;50.798;7.302;2023-04-29T17:29:29;99620;;;12.47;100
44127;BME280;29786;50.798;7.302;2023-04-29T17:34:26;99620;;;12.6;100
44127;BME280;29786;50.798;7.302;2023-04-29T17:40:37;99620;;;12.61;100
44127;BME280;29786;50.798;7.302;2023-04-29T17:45:33;99630;;;12.79;100
44127;BME280;29786;50.798;7.302;2023-04-29T17:50:30;99640;;;12.55;100
44127;BME280;29786;50.798;7.302;2023-04-29T17:55:26;99640;;;12.7;100
44127;BME280;29786;50.798;7.302;2023-04-29T18:01:38;99640;;;12.57;100
44127;BME280;29786;50.798;7.302;2023-04-29T18:06:34;99640;;;12.36;100
44127;BME280;29786;50.798;7.302;2023-04-29T18:11:30;99640;;;12.39;100
44127;BME280;29786;50.798;7.302;2023-04-29T18:16:27;99640;;;12.56;100
44127;BME280;29786;50.798;7.302;2023-04-29T18:22:37;99640;;;12.39;100
44127;BME280;29786;50.798;7.302;2023-04-29T18:27:34;99640;;;12.44;100
44127;BME280;29786;50.798;7.302;2023-04-29T18:32:30;99650;;;12.32;100
44127;BME280;29786;50.798;7.302;2023-04-29T18:37:27;99650;;;11.84;100
44127;BME280;29786;50.798;7.302;2023-04-29T18:43:37;99640;;;11.38;100
44127;BME280;29786;50.798;7.302;2023-04-29T18:48:34;99650;;;11.56;100
44127;BME280;29786;50.798;7.302;2023-04-29T18:53:30;99650;;;11.46;100
44127;BME280;29786;50.798;7.302;2023-04-29T18:58:27;99660;;;11.31;100
44127;BME280;29786;50.798;7.302;2023-04-29T19:04:38;99660;;;11.22;100
44127;BME280;29786;50.798;7.302;2023-04-29T19:09:34;99660;;;11.03;100
44127;BME280;29786;50.798;7.302;2023-04-29T19:14:31;99660;;;10.86;100
44127;BME280;29786;50.798;7.302;2023-04-29T19:19:27;99670;;;10.91;100
44127;BME280;29786;50.798;7.302;2023-04-29T19:25:38;99680;;;11.07;100
44127;BME280;29786;50.798;7.302;2023-04-29T19:30:34;99680;;;11.1;100
44127;BME280;29786;50.798;7.302;2023-04-29T19:35:31;99680;;;11.16;100
44127;BME280;29786;50.798;7.302;2023-04-29T19:40:28;99690;;;11.05;100
44127;BME280;29786;50.798;7.302;2023-04-29T19:46:38;99690;;;11.03;100
44127;BME280;29786;50.798;7.302;2023-04-29T19:51:35;99690;;;11;100
44127;BME280;29786;50.798;7.302;2023-04-29T19:56:31;99690;;;10.85;100
44127;BME280;29786;50.798;7.302;2023-04-29T20:01:28;99680;;;10.81;100
44127;BME280;29786;50.798;7.302;2023-04-29T20:06:24;99690;;;10.83;100
44127;BME280;29786;50.798;7.302;2023-04-29T20:12:35;99700;;;10.94;100
44127;BME280;29786;50.798;7.302;2023-04-29T20:17:32;99700;;;11.06;100
44127;BME280;29786;50.798;7.302;2023-04-29T20:22:28;99700;;;11.08;100
44127;BME280;29786;50.798;7.302;2023-04-29T20:28:39;99700;;;11;100
44127;BME280;29786;50.798;7.302;2023-04-29T20:33:35;99700;;;11.02;100
44127;BME280;29786;50.798;7.302;2023-04-29T20:38:32;99690;;;10.9;100
44127;BME280;29786;50.798;7.302;2023-04-29T20:43:28;99710;;;11.03;100
44127;BME280;29786;50.798;7.302;2023-04-29T20:48:26;99710;;;11.1;100
44127;BME280;29786;50.798;7.302;2023-04-29T20:54:36;99720;;;11;100
44127;BME280;29786;50.798;7.302;2023-04-29T20:59:32;99700;;;10.83;100
44127;BME280;29786;50.798;7.302;2023-04-29T21:04:29;99720;;;11.02;100
44127;BME280;29786;50.798;7.302;2023-04-29T21:09:25;99720;;;11.05;100
44127;BME280;29786;50.798;7.302;2023-04-29T21:15:36;99720;;;11.02;100
44127;BME280;29786;50.798;7.302;2023-04-29T21:20:32;99720;;;10.92;100
44127;BME280;29786;50.798;7.302;2023-04-29T21:25:29;99730;;;10.96;100
44127;BME280;29786;50.798;7.302;2023-04-29T21:30:25;99720;;;11.06;100
44127;BME280;29786;50.798;7.302;2023-04-29T21:36:36;99730;;;11.24;100
44127;BME280;29786;50.798;7.302;2023-04-29T21:41:33;99720;;;10.97;100
44127;BME280;29786;50.798;7.302;2023-04-29T21:46:29;99730;;;10.82;100
44127;BME280;29786;50.798;7.302;2023-04-29T21:57:36;99730;;;10.99;100
44127;BME280;29786;50.798;7.302;2023-04-29T22:02:33;99730;;;10.95;100
44127;BME280;29786;50.798;7.302;2023-04-29T22:07:29;99740;;;10.81;100
44127;BME280;29786;50.798;7.302;2023-04-29T22:12:26;99740;;;10.75;100
44127;BME280;29786;50.798;7.302;2023-04-29T22:18:37;99740;;;10.73;100
44127;BME280;29786;50.798;7.302;2023-04-29T22:23:33;99750;;;10.72;100
44127;BME280;29786;50.798;7.302;2023-04-29T22:28:30;99740;;;10.53;100
44127;BME280;29786;50.798;7.302;2023-04-29T22:33:26;99750;;;10.35;100
44127;BME280;29786;50.798;7.302;2023-04-29T22:39:37;99750;;;10.72;100
44127;BME280;29786;50.798;7.302;2023-04-29T22:44:33;99760;;;10.24;100
44127;BME280;29786;50.798;7.302;2023-04-29T22:49:30;99760;;;10.17;100
44127;BME280;29786;50.798;7.302;2023-04-29T22:54:27;99760;;;10.04;100
44127;BME280;29786;50.798;7.302;2023-04-29T23:00:37;99770;;;9.85;100
44127;BME280;29786;50.798;7.302;2023-04-29T23:05:34;99770;;;9.89;100
44127;BME280;29786;50.798;7.302;2023-04-29T23:10:31;99770;;;9.85;100
44127;BME280;29786;50.798;7.302;2023-04-29T23:21:37;99770;;;9.67;100
44127;BME280;29786;50.798;7.302;2023-04-29T23:26:34;99780;;;9.68;100
44127;BME280;29786;50.798;7.302;2023-04-29T23:31:31;99780;;;9.57;100
44127;BME280;29786;50.798;7.302;2023-04-29T23:36:27;99780;;;9.6;100
44127;BME280;29786;50.798;7.302;2023-04-29T23:42:38;99770;;;9.47;100
44127;BME280;29786;50.798;7.302;2023-04-29T23:47:34;99770;;;9.34;100
44127;BME280;29786;50.798;7.302;2023-04-29T23:52:31;99770;;;9.12;100
44127;BME280;29786;50.798;7.302;2023-04-29T23:57:27;99770;;;9.14;100
